Time;durP1;ratioP1;P1;durP2;ratioP2;P2;SDS_P1;SDS_P2;PMS_P1;PMS_P2;Temp;Humidity;BMP_temperature;BMP_pressure;BME280_temperature;BME280_humidity;BME280_pressure;Samples;Min_cycle;Max_cycle;Signal;HPM_P1;HPM_P2
2022/06/19 00:00:06;;;;;;;;;;;;;;;;;;5040389;28;1369;-65
2022/06/19 00:02:31;;;;;;;;;;;;;;;;;;5039766;28;1344;-67
2022/06/19 00:04:57;;;;;;;;;;;;;;;;;;5040672;28;1171;-67
2022/06/19 00:07:22;;;;;;;;;;;;;;;;;;5040564;28;1219;-68
2022/06/19 00:09:47;;;;;;;;;;;;;;;;;;5039350;28;1561;-68
2022/06/19 00:12:13;;;;;;;;;;;;;;;;;;5039428;28;1686;-68
2022/06/19 00:14:38;;;;;;;;;;;;;;;;;;5040166;28;1960;-68
2022/06/19 00:17:04;;;;;;;;;;;;;;;;;;5039557;28;1681;-67
2022/06/19 00:19:29;;;;;;;;;;;;;;;;;;5039061;28;1526;-66
2022/06/19 00:21:55;;;;;;;;;;;;;;;;;;5039983;28;1549;-66
2022/06/19 00:24:20;;;;;;;;;;;;;;;;;;5039714;28;1480;-67
2022/06/19 00:26:45;;;;;;;;;;;;;;;;;;5039731;28;1446;-67
2022/06/19 00:29:10;;;;;;;;;;;;;;;;;;5038716;28;1337;-67
2022/06/19 00:31:35;;;;;;;;;;;;;;;;;;5039400;28;1521;-67
2022/06/19 00:34:01;;;;;;;;;;;;;;;;;;5039105;28;1367;-67
2022/06/19 00:36:27;;;;;;;;;;;;;;;;;;5039603;28;1968;-66
2022/06/19 00:38:53;;;;;;;;;;;;;;;;;;5040259;28;1291;-67
2022/06/19 00:41:18;;;;;;;;;;;;;;;;;;5039482;28;1507;-68
2022/06/19 00:43:54;;;;;;;;;;;;;;;;;;5040252;28;1576;-67
2022/06/19 00:46:38;;;;;;;;;;;;;;;;;;5039522;28;1430;-67
2022/06/19 00:49:04;;;;;;;;;;;;;;;;;;5030259;28;1345;-67
2022/06/19 00:51:29;;;;;;;;;;;;;;;;;;5040076;28;1820;-67
2022/06/19 00:53:54;;;;;;;;;;;;;;;;;;5040805;28;935;-67
2022/06/19 00:56:20;;;;;;;;;;;;;;;;;;5042529;28;1965;-67
2022/06/19 00:58:45;;;;;;;;;;;;;;;;;;5042860;28;1583;-67
2022/06/19 01:01:12;;;;;;;;;;;;;;;;;;5040097;28;1464;-67
2022/06/19 01:03:41;;;;;;;;;;;;;;;;;;5042676;28;1505;-67
2022/06/19 01:06:07;;;;;;;;;;;;;;;;;;5042666;28;1356;-67
2022/06/19 01:08:32;;;;;;;;;;;;;;;;;;5036944;28;1527;-67
2022/06/19 01:10:58;;;;;;;;;;;;;;;;;;5042661;28;1415;-67
2022/06/19 01:13:25;;;;;;;;;;;;;;;;;;5042468;28;1321;-67
2022/06/19 01:15:50;;;;;;;;;;;;;;;;;;5042200;28;1890;-67
2022/06/19 01:18:16;;;;;;;;;;;;;;;;;;5042830;28;1312;-66
2022/06/19 01:20:42;;;;;;;;;;;;;;;;;;5041019;28;1562;-66
2022/06/19 01:23:26;;;;;;;;;;;;;;;;;;5043395;28;1204;-66
2022/06/19 01:25:52;;;;;;;;;;;;;;;;;;5042618;28;1460;-67
2022/06/19 01:28:55;;;;;;;;;;;;;;;;;;5042492;28;1691;-66
2022/06/19 01:31:33;;;;;;;;;;;;;;;;;;5033060;28;1611;-66
2022/06/19 01:34:26;;;;;;;;;;;;;;;;;;5043025;28;1077;-66
2022/06/19 01:36:49;;;;;;;;;;;;;;;;;;5032692;28;1951;-66
2022/06/19 01:39:14;;;;;;;;;;;;;;;;;;5041635;28;1394;-65
2022/06/19 01:41:39;;;;;;;;;;;;;;;;;;5041644;28;1367;-65
2022/06/19 01:44:04;;;;;;;;;;;;;;;;;;5042690;28;1134;-65
2022/06/19 01:46:30;;;;;;;;;;;;;;;;;;5041829;28;1470;-65
2022/06/19 01:48:56;;;;;;;;;;;;;;;;;;5042437;28;1318;-65
2022/06/19 01:51:21;;;;;;;;;;;;;;;;;;5041785;28;1548;-65
2022/06/19 01:53:49;;;;;;;;;;;;;;;;;;5042916;28;1144;-65
2022/06/19 01:56:14;;;;;;;;;;;;;;;;;;5041199;28;1897;-65
2022/06/19 01:58:42;;;;;;;;;;;;;;;;;;5041508;28;1501;-66
2022/06/19 02:01:08;;;;;;;;;;;;;;;;;;5041473;28;1697;-65
2022/06/19 02:03:39;;;;;;;;;;;;;;;;;;5034697;28;1109;-65
2022/06/19 02:06:04;;;;;;;;;;;;;;;;;;5040986;28;1676;-66
2022/06/19 02:08:32;;;;;;;;;;;;;;;;;;5041516;28;1280;-65
2022/06/19 02:10:57;;;;;;;;;;;;;;;;;;5024092;28;1454;-65
2022/06/19 02:13:23;;;;;;;;;;;;;;;;;;5039910;28;1694;-66
2022/06/19 02:15:49;;;;;;;;;;;;;;;;;;5041126;28;1959;-66
2022/06/19 02:18:21;;;;;;;;;;;;;;;;;;5042393;28;1220;-66
2022/06/19 02:20:48;;;;;;;;;;;;;;;;;;5022930;28;1717;-66
2022/06/19 02:23:13;;;;;;;;;;;;;;;;;;5047166;28;1273;-67
2022/06/19 02:25:40;;;;;;;;;;;;;;;;;;5046413;28;1383;-67
2022/06/19 02:28:05;;;;;;;;;;;;;;;;;;5022906;28;1481;-67
2022/06/19 02:30:31;;;;;;;;;;;;;;;;;;5041150;28;1312;-67
2022/06/19 02:32:56;;;;;;;;;;;;;;;;;;5042077;28;1204;-67
2022/06/19 02:35:23;;;;;;;;;;;;;;;;;;5041090;28;1969;-66
2022/06/19 02:37:52;;;;;;;;;;;;;;;;;;5040961;28;1398;-67
2022/06/19 02:40:23;;;;;;;;;;;;;;;;;;5038474;28;1336;-67
2022/06/19 02:42:49;;;;;;;;;;;;;;;;;;5040921;28;1452;-68
2022/06/19 02:45:16;;;;;;;;;;;;;;;;;;5040826;28;1542;-68
2022/06/19 02:47:42;;;;;;;;;;;;;;;;;;5039766;28;1523;-68
2022/06/19 02:50:10;;;;;;;;;;;;;;;;;;5041580;28;1200;-66
2022/06/19 02:52:35;;;;;;;;;;;;;;;;;;5042127;28;965;-66
2022/06/19 02:55:00;;;;;;;;;;;;;;;;;;5040942;28;1897;-66
2022/06/19 02:57:26;;;;;;;;;;;;;;;;;;5040556;28;1391;-66
2022/06/19 02:59:52;;;;;;;;;;;;;;;;;;5041332;28;1276;-67
2022/06/19 03:02:17;;;;;;;;;;;;;;;;;;5039831;28;1681;-65
2022/06/19 03:04:51;;;;;;;;;;;;;;;;;;5041820;28;1144;-66
2022/06/19 03:07:16;;;;;;;;;;;;;;;;;;5041793;28;945;-66
2022/06/19 03:09:41;;;;;;;;;;;;;;;;;;5040429;28;1679;-66
2022/06/19 03:12:07;;;;;;;;;;;;;;;;;;5040260;28;1468;-67
2022/06/19 03:14:32;;;;;;;;;;;;;;;;;;5040224;28;1344;-66
2022/06/19 03:16:57;;;;;;;;;;;;;;;;;;5040211;28;2343;-66
2022/06/19 03:19:22;;;;;;;;;;;;;;;;;;5040499;28;1326;-66
2022/06/19 03:21:49;;;;;;;;;;;;;;;;;;5041468;28;973;-66
2022/06/19 03:24:14;;;;;;;;;;;;;;;;;;5040300;28;1657;-66
2022/06/19 03:26:39;;;;;;;;;;;;;;;;;;5039763;28;1526;-66
2022/06/19 03:29:05;;;;;;;;;;;;;;;;;;5039711;28;1610;-66
2022/06/19 03:31:30;;;;;;;;;;;;;;;;;;5040427;28;1475;-65
2022/06/19 03:33:56;;;;;;;;;;;;;;;;;;5041220;28;1037;-66
2022/06/19 03:36:21;;;;;;;;;;;;;;;;;;5041385;28;1943;-66
2022/06/19 03:38:46;;;;;;;;;;;;;;;;;;5039928;28;1492;-66
2022/06/19 03:41:12;;;;;;;;;;;;;;;;;;5039780;28;1190;-66
2022/06/19 03:43:37;;;;;;;;;;;;;;;;;;5040035;28;1736;-67
2022/06/19 03:46:12;;;;;;;;;;;;;;;;;;5022613;28;1353;-68
2022/06/19 03:48:38;;;;;;;;;;;;;;;;;;5041102;28;1268;-68
2022/06/19 03:51:03;;;;;;;;;;;;;;;;;;5041220;28;1016;-65
2022/06/19 03:53:28;;;;;;;;;;;;;;;;;;5035270;28;1372;-66
2022/06/19 03:55:53;;;;;;;;;;;;;;;;;;5032221;28;1894;-66
2022/06/19 03:58:19;;;;;;;;;;;;;;;;;;5033760;28;1338;-66
2022/06/19 04:00:44;;;;;;;;;;;;;;;;;;5034466;28;1327;-67
2022/06/19 04:03:09;;;;;;;;;;;;;;;;;;5032938;28;1224;-67
2022/06/19 04:05:34;;;;;;;;;;;;;;;;;;5032311;28;1224;-66
2022/06/19 04:08:00;;;;;;;;;;;;;;;;;;5032436;28;1375;-67
2022/06/19 04:10:25;;;;;;;;;;;;;;;;;;5035979;28;1273;-67
2022/06/19 04:12:50;;;;;;;;;;;;;;;;;;5031598;28;1320;-66
2022/06/19 04:15:16;;;;;;;;;;;;;;;;;;5034988;28;1902;-67
2022/06/19 04:17:41;;;;;;;;;;;;;;;;;;5034030;28;1323;-66
2022/06/19 04:20:07;;;;;;;;;;;;;;;;;;5033702;28;1256;-65
2022/06/19 04:22:33;;;;;;;;;;;;;;;;;;5033479;28;1341;-66
2022/06/19 04:24:58;;;;;;;;;;;;;;;;;;5040858;28;1139;-66
2022/06/19 04:27:23;;;;;;;;;;;;;;;;;;5038947;28;1866;-66
2022/06/19 04:29:49;;;;;;;;;;;;;;;;;;5035696;28;1516;-67
2022/06/19 04:32:14;;;;;;;;;;;;;;;;;;5044048;28;912;-66
2022/06/19 04:34:39;;;;;;;;;;;;;;;;;;5044327;28;1021;-67
2022/06/19 04:37:04;;;;;;;;;;;;;;;;;;5043636;28;1902;-67
2022/06/19 04:39:29;;;;;;;;;;;;;;;;;;5043406;28;1778;-67
2022/06/19 04:41:55;;;;;;;;;;;;;;;;;;5044039;28;827;-67
2022/06/19 04:44:20;;;;;;;;;;;;;;;;;;5043550;28;1567;-67
2022/06/19 04:46:46;;;;;;;;;;;;;;;;;;5043039;28;1181;-67
2022/06/19 04:49:12;;;;;;;;;;;;;;;;;;5043812;28;1141;-67
2022/06/19 04:51:37;;;;;;;;;;;;;;;;;;5043882;28;993;-66
2022/06/19 04:54:02;;;;;;;;;;;;;;;;;;5043567;28;1518;-66
2022/06/19 04:56:28;;;;;;;;;;;;;;;;;;5043690;28;1890;-67
2022/06/19 04:58:53;;;;;;;;;;;;;;;;;;5038701;28;1492;-67
2022/06/19 05:01:23;;;;;;;;;;;;;;;;;;5043540;28;1319;-66
2022/06/19 05:03:50;;;;;;;;;;;;;;;;;;5042733;28;1392;-67
2022/06/19 05:06:15;;;;;;;;;;;;;;;;;;5043510;28;1668;-67
2022/06/19 05:08:40;;;;;;;;;;;;;;;;;;5043176;28;1499;-67
2022/06/19 05:11:08;;;;;;;;;;;;;;;;;;5043047;28;1617;-66
2022/06/19 05:13:33;;;;;;;;;;;;;;;;;;5043401;28;1531;-67
2022/06/19 05:16:06;;;;;;;;;;;;;;;;;;5043472;28;1949;-67
2022/06/19 05:18:32;;;;;;;;;;;;;;;;;;5042984;28;1506;-66
2022/06/19 05:20:57;;;;;;;;;;;;;;;;;;5043027;28;1112;-66
2022/06/19 05:23:22;;;;;;;;;;;;;;;;;;5043197;28;1475;-66
2022/06/19 05:25:47;;;;;;;;;;;;;;;;;;5043576;28;859;-66
2022/06/19 05:28:13;;;;;;;;;;;;;;;;;;5041176;28;1776;-67
2022/06/19 05:30:38;;;;;;;;;;;;;;;;;;5039478;28;1739;-68
2022/06/19 05:33:03;;;;;;;;;;;;;;;;;;5036274;28;1361;-66
2022/06/19 05:35:28;;;;;;;;;;;;;;;;;;5032624;28;1875;-66
2022/06/19 05:37:53;;;;;;;;;;;;;;;;;;5033786;28;1278;-66
2022/06/19 05:40:19;;;;;;;;;;;;;;;;;;5035880;28;1784;-66
2022/06/19 05:42:45;;;;;;;;;;;;;;;;;;5027779;28;1212;-66
2022/06/19 05:45:11;;;;;;;;;;;;;;;;;;5036972;28;1543;-66
2022/06/19 05:47:36;;;;;;;;;;;;;;;;;;5041715;28;1635;-66
2022/06/19 05:50:01;;;;;;;;;;;;;;;;;;5041933;28;1455;-66
2022/06/19 05:52:26;;;;;;;;;;;;;;;;;;5030906;28;1456;-67
2022/06/19 05:54:52;;;;;;;;;;;;;;;;;;5041384;28;2022;-66
2022/06/19 05:57:18;;;;;;;;;;;;;;;;;;5040830;28;1561;-67
2022/06/19 05:59:43;;;;;;;;;;;;;;;;;;5040343;28;1895;-67
2022/06/19 06:02:12;;;;;;;;;;;;;;;;;;5040426;28;1749;-64
2022/06/19 06:04:37;;;;;;;;;;;;;;;;;;5041820;28;1657;-65
2022/06/19 06:07:02;;;;;;;;;;;;;;;;;;5041942;28;1471;-65
2022/06/19 06:09:28;;;;;;;;;;;;;;;;;;5040958;28;1471;-66
2022/06/19 06:11:53;;;;;;;;;;;;;;;;;;5041471;28;1511;-64
2022/06/19 06:14:18;;;;;;;;;;;;;;;;;;5041203;28;1605;-65
2022/06/19 06:16:44;;;;;;;;;;;;;;;;;;5039570;28;1903;-66
2022/06/19 06:19:09;;;;;;;;;;;;;;;;;;5039741;28;1460;-65
2022/06/19 06:21:34;;;;;;;;;;;;;;;;;;5045086;28;1543;-66
2022/06/19 06:23:59;;;;;;;;;;;;;;;;;;5054043;28;1309;-65
2022/06/19 06:26:26;;;;;;;;;;;;;;;;;;5044023;28;1600;-65
2022/06/19 06:28:52;;;;;;;;;;;;;;;;;;5042791;28;1598;-65
2022/06/19 06:31:18;;;;;;;;;;;;;;;;;;5048459;28;1474;-65
2022/06/19 06:33:46;;;;;;;;;;;;;;;;;;5042362;28;1054;-65
2022/06/19 06:36:12;;;;;;;;;;;;;;;;;;5041084;28;1906;-66
2022/06/19 06:38:37;;;;;;;;;;;;;;;;;;5028162;28;1518;-65
2022/06/19 06:41:06;;;;;;;;;;;;;;;;;;5042115;28;1045;-65
2022/06/19 06:43:34;;;;;;;;;;;;;;;;;;5041219;28;1294;-65
2022/06/19 06:46:07;;;;;;;;;;;;;;;;;;5022475;28;1591;-65
2022/06/19 06:48:32;;;;;;;;;;;;;;;;;;5041226;28;1281;-65
2022/06/19 06:50:57;;;;;;;;;;;;;;;;;;5042125;28;989;-66
2022/06/19 06:53:23;;;;;;;;;;;;;;;;;;5041752;28;1009;-66
2022/06/19 06:55:48;;;;;;;;;;;;;;;;;;5039422;28;1893;-66
2022/06/19 06:58:13;;;;;;;;;;;;;;;;;;5037895;28;1906;-65
2022/06/19 07:00:39;;;;;;;;;;;;;;;;;;5039271;28;1523;-66
2022/06/19 07:03:04;;;;;;;;;;;;;;;;;;5038806;28;1441;-65
2022/06/19 07:05:32;;;;;;;;;;;;;;;;;;5041789;28;1271;-65
2022/06/19 07:07:59;;;;;;;;;;;;;;;;;;5041291;28;1503;-65
2022/06/19 07:10:24;;;;;;;;;;;;;;;;;;5039600;28;1848;-65
2022/06/19 07:12:49;;;;;;;;;;;;;;;;;;5039611;28;1765;-65
2022/06/19 07:15:15;;;;;;;;;;;;;;;;;;5040262;28;1886;-66
2022/06/19 07:17:40;;;;;;;;;;;;;;;;;;5040119;28;1741;-65
2022/06/19 07:20:06;;;;;;;;;;;;;;;;;;5040293;28;1577;-66
2022/06/19 07:22:31;;;;;;;;;;;;;;;;;;5039686;28;1423;-66
2022/06/19 07:24:56;;;;;;;;;;;;;;;;;;5040261;28;1475;-66
2022/06/19 07:27:22;;;;;;;;;;;;;;;;;;5040312;28;1549;-66
2022/06/19 07:29:47;;;;;;;;;;;;;;;;;;5039716;28;1864;-66
2022/06/19 07:32:13;;;;;;;;;;;;;;;;;;5038361;28;2025;-66
2022/06/19 07:34:38;;;;;;;;;;;;;;;;;;5050069;28;1706;-65
2022/06/19 07:37:04;;;;;;;;;;;;;;;;;;5047243;28;1902;-66
2022/06/19 07:39:30;;;;;;;;;;;;;;;;;;5040737;28;1373;-66
2022/06/19 07:41:55;;;;;;;;;;;;;;;;;;5041293;28;1001;-65
2022/06/19 07:44:20;;;;;;;;;;;;;;;;;;5040911;28;1574;-66
2022/06/19 07:52:17;;;;;;;;;;;;;;;;;;5039428;28;1803;-65
2022/06/19 07:54:42;;;;;;;;;;;;;;;;;;5040057;28;1764;-65
2022/06/19 07:57:08;;;;;;;;;;;;;;;;;;5040719;28;1893;-66
2022/06/19 07:59:33;;;;;;;;;;;;;;;;;;5038130;28;1840;-67
2022/06/19 08:01:58;;;;;;;;;;;;;;;;;;5038878;28;1831;-67
2022/06/19 08:04:23;;;;;;;;;;;;;;;;;;5040743;28;1504;-67
2022/06/19 08:06:49;;;;;;;;;;;;;;;;;;5046911;28;2029;-66
2022/06/19 08:09:14;;;;;;;;;;;;;;;;;;5044029;28;1567;-66
2022/06/19 08:11:39;;;;;;;;;;;;;;;;;;5045856;28;1524;-67
2022/06/19 08:14:04;;;;;;;;;;;;;;;;;;5046112;28;1982;-64
2022/06/19 08:16:29;;;;;;;;;;;;;;;;;;5045868;28;1985;-66
2022/06/19 08:18:55;;;;;;;;;;;;;;;;;;5045958;28;1543;-65
2022/06/19 08:21:20;;;;;;;;;;;;;;;;;;5047194;28;874;-63
2022/06/19 08:23:46;;;;;;;;;;;;;;;;;;5047156;28;1428;-65
2022/06/19 08:26:11;;;;;;;;;;;;;;;;;;5046391;28;1848;-65
2022/06/19 08:31:02;;;;;;;;;;;;;;;;;;5045164;28;1530;-62
2022/06/19 08:33:27;;;;;;;;;;;;;;;;;;5046092;28;1982;-63
2022/06/19 08:35:54;;;;;;;;;;;;;;;;;;5044753;28;1878;-63
2022/06/19 08:38:21;;;;;;;;;;;;;;;;;;5046618;28;1518;-63
2022/06/19 08:40:46;;;;;;;;;;;;;;;;;;5052109;28;1317;-62
2022/06/19 08:43:30;;;;;;;;;;;;;;;;;;5046836;28;1143;-62
2022/06/19 08:45:58;;;;;;;;;;;;;;;;;;5033599;28;1543;-62
2022/06/19 08:48:37;;;;;;;;;;;;;;;;;;5046720;28;1196;-62
2022/06/19 08:51:08;;;;;;;;;;;;;;;;;;5046130;28;1756;-62
2022/06/19 08:53:44;;;;;;;;;;;;;;;;;;5042950;28;1385;-61
2022/06/19 08:56:21;;;;;;;;;;;;;;;;;;5046069;28;1955;-62
2022/06/19 08:58:55;;;;;;;;;;;;;;;;;;5046143;28;1405;-62
2022/06/19 09:01:20;;;;;;;;;;;;;;;;;;5045844;28;1720;-62
2022/06/19 09:06:52;;;;;;;;;;;;;;;;;;5043975;28;1339;-61
2022/06/19 09:09:20;;;;;;;;;;;;;;;;;;5041679;28;1388;-60
2022/06/19 09:11:48;;;;;;;;;;;;;;;;;;5046252;28;1481;-60
2022/06/19 09:14:20;;;;;;;;;;;;;;;;;;5043945;28;1482;-61
2022/06/19 09:16:45;;;;;;;;;;;;;;;;;;5043707;28;1890;-61
2022/06/19 09:19:12;;;;;;;;;;;;;;;;;;5042104;28;1349;-61
2022/06/19 09:22:11;;;;;;;;;;;;;;;;;;5042954;28;1429;-61
2022/06/19 09:24:55;;;;;;;;;;;;;;;;;;5025389;28;1394;-61
2022/06/19 09:27:25;;;;;;;;;;;;;;;;;;5043377;28;1057;-61
2022/06/19 09:29:57;;;;;;;;;;;;;;;;;;5041815;28;1448;-61
2022/06/19 09:32:32;;;;;;;;;;;;;;;;;;5043073;28;1108;-61
2022/06/19 09:35:04;;;;;;;;;;;;;;;;;;5042130;28;1961;-61
2022/06/19 09:37:44;;;;;;;;;;;;;;;;;;5042995;28;1480;-61
2022/06/19 09:40:22;;;;;;;;;;;;;;;;;;5058136;28;1401;-61
2022/06/19 09:42:55;;;;;;;;;;;;;;;;;;5041879;28;1541;-61
2022/06/19 09:45:24;;;;;;;;;;;;;;;;;;5042592;28;1652;-61
2022/06/19 09:47:52;;;;;;;;;;;;;;;;;;5042215;28;1460;-62
2022/06/19 09:50:28;;;;;;;;;;;;;;;;;;5042628;28;1141;-61
2022/06/19 09:53:02;;;;;;;;;;;;;;;;;;5041640;28;1538;-61
2022/06/19 09:55:31;;;;;;;;;;;;;;;;;;5043057;28;1959;-60
2022/06/19 09:58:02;;;;;;;;;;;;;;;;;;5042398;28;1527;-61
2022/06/19 10:00:29;;;;;;;;;;;;;;;;;;5042560;28;1504;-61
2022/06/19 10:02:57;;;;;;;;;;;;;;;;;;5041122;28;1551;-60
2022/06/19 10:05:37;;;;;;;;;;;;;;;;;;5042176;28;1413;-61
2022/06/19 10:08:12;;;;;;;;;;;;;;;;;;5040640;28;1503;-63
2022/06/19 10:10:47;;;;;;;;;;;;;;;;;;5040467;28;1414;-62
2022/06/19 10:13:19;;;;;;;;;;;;;;;;;;5042539;28;1540;-62
2022/06/19 10:15:46;;;;;;;;;;;;;;;;;;5024479;28;1949;-62
2022/06/19 10:18:30;;;;;;;;;;;;;;;;;;5027133;28;1413;-62
2022/06/19 10:21:04;;;;;;;;;;;;;;;;;;5042139;28;1495;-62
2022/06/19 10:23:41;;;;;;;;;;;;;;;;;;5042254;28;1527;-62
2022/06/19 10:26:09;;;;;;;;;;;;;;;;;;5041722;28;1478;-62
2022/06/19 10:28:45;;;;;;;;;;;;;;;;;;5041176;28;1452;-63
2022/06/19 10:31:10;;;;;;;;;;;;;;;;;;5041848;28;1276;-62
2022/06/19 10:33:55;;;;;;;;;;;;;;;;;;5024117;28;1465;-63
2022/06/19 10:36:32;;;;;;;;;;;;;;;;;;5041473;28;1898;-62
2022/06/19 10:39:03;;;;;;;;;;;;;;;;;;5041497;28;1288;-62
2022/06/19 10:44:43;;;;;;;;;;;;;;;;;;5039150;28;1344;-63
2022/06/19 10:47:11;;;;;;;;;;;;;;;;;;5043578;28;1331;-63
2022/06/19 10:49:56;;;;;;;;;;;;;;;;;;5047933;28;1542;-63
2022/06/19 10:52:30;;;;;;;;;;;;;;;;;;5030972;28;1674;-62
2022/06/19 10:54:58;;;;;;;;;;;;;;;;;;5041229;28;1737;-63
2022/06/19 10:57:24;;;;;;;;;;;;;;;;;;5040881;28;1902;-63
2022/06/19 10:59:50;;;;;;;;;;;;;;;;;;5034499;28;1351;-63
2022/06/19 11:05:23;;;;;;;;;;;;;;;;;;5042012;28;1263;-63
2022/06/19 11:07:48;;;;;;;;;;;;;;;;;;5040901;28;1561;-63
2022/06/19 11:10:18;;;;;;;;;;;;;;;;;;5041266;28;1496;-63
2022/06/19 11:12:49;;;;;;;;;;;;;;;;;;5041555;28;1508;-63
2022/06/19 11:15:19;;;;;;;;;;;;;;;;;;5040041;28;1957;-63
2022/06/19 11:17:44;;;;;;;;;;;;;;;;;;5040188;28;1355;-63
2022/06/19 11:20:24;;;;;;;;;;;;;;;;;;5041159;28;1424;-63
2022/06/19 11:22:50;;;;;;;;;;;;;;;;;;5041300;28;1472;-63
2022/06/19 11:25:18;;;;;;;;;;;;;;;;;;5041543;28;1128;-63
2022/06/19 11:27:53;;;;;;;;;;;;;;;;;;5037960;28;1535;-63
2022/06/19 11:30:36;;;;;;;;;;;;;;;;;;5040604;28;1302;-63
2022/06/19 11:33:04;;;;;;;;;;;;;;;;;;5040885;28;1487;-63
2022/06/19 11:35:39;;;;;;;;;;;;;;;;;;5040305;28;1909;-64
2022/06/19 11:38:05;;;;;;;;;;;;;;;;;;5040304;28;1504;-63
2022/06/19 11:40:35;;;;;;;;;;;;;;;;;;5040152;28;1484;-63
2022/06/19 11:43:01;;;;;;;;;;;;;;;;;;5041224;28;1436;-63
2022/06/19 11:45:27;;;;;;;;;;;;;;;;;;5041206;28;1484;-63
2022/06/19 11:47:55;;;;;;;;;;;;;;;;;;5040697;28;1520;-63
2022/06/19 11:50:22;;;;;;;;;;;;;;;;;;5039209;28;1550;-63
2022/06/19 11:52:55;;;;;;;;;;;;;;;;;;5049011;28;1394;-64
2022/06/19 11:55:28;;;;;;;;;;;;;;;;;;5044267;28;1890;-65
2022/06/19 11:57:56;;;;;;;;;;;;;;;;;;5037651;28;1382;-65
2022/06/19 12:00:29;;;;;;;;;;;;;;;;;;5035503;28;1348;-64
2022/06/19 12:02:55;;;;;;;;;;;;;;;;;;5041077;28;1199;-64
2022/06/19 12:05:23;;;;;;;;;;;;;;;;;;5039949;28;1756;-64
2022/06/19 12:07:49;;;;;;;;;;;;;;;;;;5040617;28;1531;-64
2022/06/19 12:10:14;;;;;;;;;;;;;;;;;;5038764;28;1716;-65
2022/06/19 12:12:39;;;;;;;;;;;;;;;;;;5039622;28;1468;-64
2022/06/19 12:15:13;;;;;;;;;;;;;;;;;;5039345;28;1867;-64
2022/06/19 12:17:43;;;;;;;;;;;;;;;;;;5040232;28;1379;-64
2022/06/19 12:20:08;;;;;;;;;;;;;;;;;;5040327;28;1559;-65
2022/06/19 12:22:48;;;;;;;;;;;;;;;;;;5040782;28;925;-64
2022/06/19 12:25:31;;;;;;;;;;;;;;;;;;5039587;28;1689;-65
2022/06/19 12:27:59;;;;;;;;;;;;;;;;;;5040708;28;1180;-64
2022/06/19 12:30:30;;;;;;;;;;;;;;;;;;5039038;28;1413;-64
2022/06/19 12:32:57;;;;;;;;;;;;;;;;;;5040309;28;1553;-64
2022/06/19 12:35:28;;;;;;;;;;;;;;;;;;5039332;28;1992;-64
2022/06/19 12:37:53;;;;;;;;;;;;;;;;;;5039581;28;1573;-64
2022/06/19 12:40:23;;;;;;;;;;;;;;;;;;5040188;28;1613;-64
2022/06/19 12:42:55;;;;;;;;;;;;;;;;;;5040341;28;1357;-64
2022/06/19 12:45:20;;;;;;;;;;;;;;;;;;5038784;28;1485;-64
2022/06/19 12:47:50;;;;;;;;;;;;;;;;;;5039034;28;1365;-64
2022/06/19 12:50:34;;;;;;;;;;;;;;;;;;5040851;28;1227;-64
2022/06/19 12:53:32;;;;;;;;;;;;;;;;;;5043956;28;907;-64
2022/06/19 12:55:59;;;;;;;;;;;;;;;;;;5014150;28;1898;-62
2022/06/19 12:58:43;;;;;;;;;;;;;;;;;;5045275;28;1350;-62
2022/06/19 13:01:18;;;;;;;;;;;;;;;;;;5047723;28;1674;-62
2022/06/19 13:03:43;;;;;;;;;;;;;;;;;;5051840;28;1251;-63
2022/06/19 13:06:11;;;;;;;;;;;;;;;;;;5042503;28;1570;-62
2022/06/19 13:08:40;;;;;;;;;;;;;;;;;;5041919;28;1313;-62
2022/06/19 13:11:05;;;;;;;;;;;;;;;;;;5041841;28;1733;-62
2022/06/19 13:13:44;;;;;;;;;;;;;;;;;;5043263;28;1341;-63
2022/06/19 13:16:21;;;;;;;;;;;;;;;;;;5042247;28;1961;-64
2022/06/19 13:18:56;;;;;;;;;;;;;;;;;;5042407;28;1419;-62
2022/06/19 13:21:27;;;;;;;;;;;;;;;;;;5040411;28;1679;-62
2022/06/19 13:24:01;;;;;;;;;;;;;;;;;;5038003;28;1219;-63
2022/06/19 13:29:28;;;;;;;;;;;;;;;;;;5037507;28;1286;-62
2022/06/19 13:31:56;;;;;;;;;;;;;;;;;;5043159;28;870;-62
2022/06/19 13:34:29;;;;;;;;;;;;;;;;;;5042141;28;1380;-63
2022/06/19 13:36:57;;;;;;;;;;;;;;;;;;5044613;28;1976;-63
2022/06/19 13:39:41;;;;;;;;;;;;;;;;;;5035002;28;1303;-62
2022/06/19 13:42:22;;;;;;;;;;;;;;;;;;5045932;28;1228;-62
2022/06/19 13:44:57;;;;;;;;;;;;;;;;;;5042707;28;1571;-62
2022/06/19 13:47:25;;;;;;;;;;;;;;;;;;5040198;28;1646;-62
2022/06/19 13:49:57;;;;;;;;;;;;;;;;;;5040688;28;1514;-62
2022/06/19 13:52:34;;;;;;;;;;;;;;;;;;5041665;28;1510;-61
2022/06/19 13:54:59;;;;;;;;;;;;;;;;;;5041895;28;1439;-62
2022/06/19 13:57:37;;;;;;;;;;;;;;;;;;5041490;28;1959;-62
2022/06/19 14:00:12;;;;;;;;;;;;;;;;;;5041880;28;1521;-62
2022/06/19 14:02:37;;;;;;;;;;;;;;;;;;5039753;28;1615;-63
2022/06/19 14:05:21;;;;;;;;;;;;;;;;;;5042501;28;1190;-63
2022/06/19 14:07:59;;;;;;;;;;;;;;;;;;5036863;28;1994;-62
2022/06/19 14:10:50;;;;;;;;;;;;;;;;;;5041352;28;1490;-62
2022/06/19 14:13:21;;;;;;;;;;;;;;;;;;5036502;28;1637;-62
2022/06/19 14:15:54;;;;;;;;;;;;;;;;;;5039262;28;1959;-63
2022/06/19 14:18:29;;;;;;;;;;;;;;;;;;5042227;28;1392;-62
2022/06/19 14:20:54;;;;;;;;;;;;;;;;;;5041500;28;1657;-62
2022/06/19 14:23:19;;;;;;;;;;;;;;;;;;5024245;28;1483;-62
2022/06/19 14:25:51;;;;;;;;;;;;;;;;;;5040853;28;1566;-61
2022/06/19 14:28:23;;;;;;;;;;;;;;;;;;5041140;28;1879;-63
2022/06/19 14:30:50;;;;;;;;;;;;;;;;;;5041148;28;1554;-62
2022/06/19 14:33:48;;;;;;;;;;;;;;;;;;5040847;28;1483;-62
2022/06/19 14:36:19;;;;;;;;;;;;;;;;;;5016197;28;2236;-62
2022/06/19 14:38:46;;;;;;;;;;;;;;;;;;5036264;28;1539;-62
2022/06/19 14:41:13;;;;;;;;;;;;;;;;;;5035493;28;1558;-63
2022/06/19 14:43:40;;;;;;;;;;;;;;;;;;5045771;28;1251;-62
2022/06/19 14:46:12;;;;;;;;;;;;;;;;;;5046328;28;1491;-62
2022/06/19 14:48:56;;;;;;;;;;;;;;;;;;5044320;28;1326;-64
2022/06/19 14:51:31;;;;;;;;;;;;;;;;;;5039806;28;1824;-64
2022/06/19 14:54:03;;;;;;;;;;;;;;;;;;5039221;28;1875;-65
2022/06/19 14:56:49;;;;;;;;;;;;;;;;;;5041798;28;1889;-65
2022/06/19 14:59:21;;;;;;;;;;;;;;;;;;5041504;28;1258;-64
2022/06/19 15:01:49;;;;;;;;;;;;;;;;;;5040343;28;1836;-64
2022/06/19 15:04:16;;;;;;;;;;;;;;;;;;5039535;28;1663;-65
2022/06/19 15:06:43;;;;;;;;;;;;;;;;;;5038412;28;1883;-65
2022/06/19 15:09:10;;;;;;;;;;;;;;;;;;5039386;28;1498;-65
2022/06/19 15:11:37;;;;;;;;;;;;;;;;;;5039610;28;1860;-65
2022/06/19 15:14:15;;;;;;;;;;;;;;;;;;5039827;28;1566;-65
2022/06/19 15:16:51;;;;;;;;;;;;;;;;;;5040787;28;1969;-64
2022/06/19 15:19:18;;;;;;;;;;;;;;;;;;5023523;28;1296;-65
2022/06/19 15:21:44;;;;;;;;;;;;;;;;;;5041220;28;1605;-67
2022/06/19 15:24:23;;;;;;;;;;;;;;;;;;5039720;28;1872;-65
2022/06/19 15:26:49;;;;;;;;;;;;;;;;;;5040841;28;1638;-64
2022/06/19 15:29:20;;;;;;;;;;;;;;;;;;5024141;28;1476;-64
2022/06/19 15:32:11;;;;;;;;;;;;;;;;;;5039345;28;1867;-64
2022/06/19 15:34:48;;;;;;;;;;;;;;;;;;4998713;28;1496;-64
2022/06/19 15:37:22;;;;;;;;;;;;;;;;;;5039710;28;1971;-64
2022/06/19 15:39:52;;;;;;;;;;;;;;;;;;5037724;28;1843;-64
2022/06/19 15:42:22;;;;;;;;;;;;;;;;;;5037625;28;1697;-64
2022/06/19 15:45:06;;;;;;;;;;;;;;;;;;5037806;28;1764;-65
2022/06/19 15:47:54;;;;;;;;;;;;;;;;;;5020906;28;1345;-65
2022/06/19 15:50:25;;;;;;;;;;;;;;;;;;5016257;28;1488;-65
2022/06/19 15:52:51;;;;;;;;;;;;;;;;;;5041352;28;1184;-65
2022/06/19 15:55:20;;;;;;;;;;;;;;;;;;5040988;28;2343;-64
2022/06/19 15:57:49;;;;;;;;;;;;;;;;;;5040903;28;1207;-64
2022/06/19 16:00:25;;;;;;;;;;;;;;;;;;5040997;28;826;-65
2022/06/19 16:02:58;;;;;;;;;;;;;;;;;;5040911;28;842;-65
2022/06/19 16:05:26;;;;;;;;;;;;;;;;;;5041009;28;1440;-64
2022/06/19 16:07:51;;;;;;;;;;;;;;;;;;5021357;28;1213;-64
2022/06/19 16:10:17;;;;;;;;;;;;;;;;;;5020924;28;1006;-64
2022/06/19 16:12:42;;;;;;;;;;;;;;;;;;5021259;28;851;-65
2022/06/19 16:15:15;;;;;;;;;;;;;;;;;;5020864;28;1064;-64
2022/06/19 16:17:41;;;;;;;;;;;;;;;;;;5021791;28;886;-65
2022/06/19 16:20:11;;;;;;;;;;;;;;;;;;5021155;28;1283;-65
2022/06/19 16:22:37;;;;;;;;;;;;;;;;;;5021048;28;1002;-65
2022/06/19 16:25:04;;;;;;;;;;;;;;;;;;5040251;28;1501;-65
2022/06/19 16:27:30;;;;;;;;;;;;;;;;;;5044213;28;1436;-65
2022/06/19 16:29:57;;;;;;;;;;;;;;;;;;5043839;28;1401;-65
2022/06/19 16:32:25;;;;;;;;;;;;;;;;;;5044084;28;895;-65
2022/06/19 16:46:03;;;;;;;;;;;;;;;;;;5024555;28;960;-65
2022/06/19 16:48:29;;;;;;;;;;;;;;;;;;5031070;28;1704;-64
2022/06/19 16:50:59;;;;;;;;;;;;;;;;;;5042877;28;1303;-65
2022/06/19 16:53:25;;;;;;;;;;;;;;;;;;5043880;28;1013;-65
2022/06/19 16:55:52;;;;;;;;;;;;;;;;;;5043433;28;1882;-64
2022/06/19 16:58:24;;;;;;;;;;;;;;;;;;5043571;28;1294;-65
2022/06/19 17:01:01;;;;;;;;;;;;;;;;;;5043805;28;913;-65
2022/06/19 17:03:39;;;;;;;;;;;;;;;;;;5025968;28;1484;-65
2022/06/19 17:06:08;;;;;;;;;;;;;;;;;;5043726;28;1035;-64
2022/06/19 17:08:41;;;;;;;;;;;;;;;;;;5043638;28;1200;-65
2022/06/19 17:11:26;;;;;;;;;;;;;;;;;;5043579;28;922;-65
2022/06/19 17:13:58;;;;;;;;;;;;;;;;;;5043463;28;1500;-64
2022/06/19 17:16:23;;;;;;;;;;;;;;;;;;5043230;28;1949;-64
2022/06/19 17:18:51;;;;;;;;;;;;;;;;;;5043206;28;1519;-65
2022/06/19 17:21:17;;;;;;;;;;;;;;;;;;5043545;28;1055;-64
2022/06/19 17:24:03;;;;;;;;;;;;;;;;;;5043448;28;819;-64
2022/06/19 17:26:31;;;;;;;;;;;;;;;;;;5043334;28;1510;-64
2022/06/19 17:28:56;;;;;;;;;;;;;;;;;;5043172;28;1192;-64
2022/06/19 17:31:24;;;;;;;;;;;;;;;;;;5025521;28;1507;-64
2022/06/19 17:33:50;;;;;;;;;;;;;;;;;;5043231;28;955;-65
2022/06/19 17:36:15;;;;;;;;;;;;;;;;;;5042165;28;1894;-64
2022/06/19 17:38:45;;;;;;;;;;;;;;;;;;5042349;28;1263;-64
2022/06/19 17:41:12;;;;;;;;;;;;;;;;;;5043157;28;950;-65
2022/06/19 17:43:39;;;;;;;;;;;;;;;;;;5043238;28;1001;-64
2022/06/19 17:46:16;;;;;;;;;;;;;;;;;;5042862;28;879;-65